Time;durP1;ratioP1;P1;durP2;ratioP2;P2;SDS_P1;SDS_P2;PMS_P1;PMS_P2;Temp;Humidity;BMP_temperature;BMP_pressure;BME280_temperature;BME280_humidity;BME280_pressure;Samples;Min_cycle;Max_cycle;Signal;HPM_P1;HPM_P2
2023/07/12 00:01:36;;;;;;;5.05;4.25;;;;;;;;;;5073689;28;20094;-56
2023/07/12 00:04:02;;;;;;;4.90;4.40;;;;;;;;;;5073515;28;20032;-56
2023/07/12 00:06:36;;;;;;;6.88;5.13;;;;;;;;;;5075869;28;20066;-57
2023/07/12 00:09:02;;;;;;;6.22;5.30;;;;;;;;;;5077383;28;20079;-56
2023/07/12 00:11:27;;;;;;;7.32;5.32;;;;;;;;;;5077648;28;20028;-56
2023/07/12 00:13:54;;;;;;;6.10;4.78;;;;;;;;;;5077479;28;20041;-56
2023/07/12 00:16:33;;;;;;;4.90;4.50;;;;;;;;;;5077407;28;20052;-56
2023/07/12 00:18:59;;;;;;;5.10;4.60;;;;;;;;;;5077614;28;20036;-57
2023/07/12 00:21:25;;;;;;;5.88;4.53;;;;;;;;;;5076121;28;20090;-57
2023/07/12 00:23:52;;;;;;;5.38;4.88;;;;;;;;;;5077375;28;20044;-57
2023/07/12 00:26:36;;;;;;;4.93;4.40;;;;;;;;;;5077162;28;20051;-57
2023/07/12 00:29:03;;;;;;;5.20;4.80;;;;;;;;;;5076195;28;20028;-57
2023/07/12 00:31:29;;;;;;;6.13;4.97;;;;;;;;;;5076829;28;20036;-57
2023/07/12 00:33:55;;;;;;;6.45;4.55;;;;;;;;;;5077202;28;20353;-57
2023/07/12 00:36:22;;;;;;;4.80;4.40;;;;;;;;;;5075564;28;20036;-56
2023/07/12 00:38:48;;;;;;;4.07;3.88;;;;;;;;;;5076726;28;20028;-57
2023/07/12 00:41:16;;;;;;;4.45;3.95;;;;;;;;;;5076397;28;20078;-57
2023/07/12 00:43:44;;;;;;;4.18;3.90;;;;;;;;;;5076931;28;20028;-57
2023/07/12 00:46:14;;;;;;;4.57;4.05;;;;;;;;;;5077085;28;20033;-57
2023/07/12 00:48:40;;;;;;;6.45;4.47;;;;;;;;;;5076546;28;20037;-57
2023/07/12 00:51:23;;;;;;;5.15;4.75;;;;;;;;;;5076779;28;20161;-57
2023/07/12 00:53:49;;;;;;;6.07;4.57;;;;;;;;;;5076726;28;20041;-57
2023/07/12 00:56:14;;;;;;;5.13;4.63;;;;;;;;;;5076711;28;20177;-57
2023/07/12 00:58:48;;;;;;;4.63;4.25;;;;;;;;;;5076943;28;20017;-56
2023/07/12 01:01:14;;;;;;;4.75;3.58;;;;;;;;;;5076448;28;20474;-57
2023/07/12 01:03:41;;;;;;;4.38;3.97;;;;;;;;;;5076714;28;20025;-56
2023/07/12 01:06:09;;;;;;;4.50;4.10;;;;;;;;;;5075218;28;20502;-57
2023/07/12 01:08:36;;;;;;;4.63;4.22;;;;;;;;;;5076185;28;20107;-56
2023/07/12 01:11:02;;;;;;;4.93;4.53;;;;;;;;;;5076540;28;20032;-57
2023/07/12 01:13:29;;;;;;;5.28;4.25;;;;;;;;;;5076191;28;20040;-56
2023/07/12 01:15:55;;;;;;;5.47;3.97;;;;;;;;;;5074261;28;20035;-56
2023/07/12 01:18:20;;;;;;;5.82;4.22;;;;;;;;;;5074461;28;20025;-56
2023/07/12 01:20:47;;;;;;;4.50;4.10;;;;;;;;;;5076166;28;20051;-61
2023/07/12 01:23:12;;;;;;;4.63;4.22;;;;;;;;;;5076208;28;20021;-56
2023/07/12 01:25:44;;;;;;;6.25;4.28;;;;;;;;;;5076375;28;20463;-60
2023/07/12 01:28:10;;;;;;;5.03;3.85;;;;;;;;;;5075215;28;20117;-61
2023/07/12 01:30:37;;;;;;;4.07;3.80;;;;;;;;;;5075845;28;20082;-60
2023/07/12 01:33:03;;;;;;;4.03;3.63;;;;;;;;;;5074893;28;20047;-60
2023/07/12 01:35:29;;;;;;;4.05;3.65;;;;;;;;;;5074886;28;20033;-60
2023/07/12 01:37:54;;;;;;;4.40;3.72;;;;;;;;;;5076156;28;20032;-60
2023/07/12 01:40:21;;;;;;;4.63;3.90;;;;;;;;;;5075816;28;20025;-60
2023/07/12 01:42:46;;;;;;;4.18;3.80;;;;;;;;;;5075755;28;20025;-60
2023/07/12 01:45:12;;;;;;;4.10;3.70;;;;;;;;;;5075732;28;20110;-61
2023/07/12 01:47:39;;;;;;;5.82;4.10;;;;;;;;;;5074210;28;20066;-61
2023/07/12 01:50:04;;;;;;;4.32;3.92;;;;;;;;;;5074508;28;20029;-61
2023/07/12 01:52:29;;;;;;;5.18;3.95;;;;;;;;;;5074351;28;20406;-61
2023/07/12 01:54:55;;;;;;;4.45;3.67;;;;;;;;;;5075435;28;20489;-61
2023/07/12 01:57:20;;;;;;;5.65;3.83;;;;;;;;;;5074423;28;20136;-61
2023/07/12 01:59:45;;;;;;;5.90;4.28;;;;;;;;;;5074142;28;20035;-61
2023/07/12 02:02:11;;;;;;;4.60;3.90;;;;;;;;;;5075472;28;20064;-61
2023/07/12 02:04:37;;;;;;;4.05;3.75;;;;;;;;;;5075432;28;20486;-61
2023/07/12 02:07:03;;;;;;;4.05;3.75;;;;;;;;;;5074231;28;20036;-61
2023/07/12 02:09:32;;;;;;;4.00;3.70;;;;;;;;;;5073727;28;20031;-60
2023/07/12 02:11:58;;;;;;;4.57;4.27;;;;;;;;;;5074111;28;20422;-60
2023/07/12 02:14:23;;;;;;;5.60;4.93;;;;;;;;;;5074041;28;20115;-60
2023/07/12 02:16:49;;;;;;;7.03;4.35;;;;;;;;;;5074084;28;20090;-60
2023/07/12 02:19:14;;;;;;;4.68;4.28;;;;;;;;;;5075318;28;20048;-60
2023/07/12 02:21:42;;;;;;;4.47;4.18;;;;;;;;;;5075082;28;20032;-60
2023/07/12 02:24:09;;;;;;;4.57;4.18;;;;;;;;;;5073306;28;20036;-60
2023/07/12 02:26:36;;;;;;;6.43;4.80;;;;;;;;;;5074793;28;20452;-60
2023/07/12 02:29:01;;;;;;;4.63;4.22;;;;;;;;;;5073093;28;20051;-60
2023/07/12 02:31:29;;;;;;;4.35;3.85;;;;;;;;;;5073448;28;20024;-61
2023/07/12 02:33:55;;;;;;;4.53;4.20;;;;;;;;;;5073268;28;20024;-60
2023/07/12 02:36:20;;;;;;;3.92;3.63;;;;;;;;;;5074557;28;20098;-61
2023/07/12 02:38:46;;;;;;;4.93;3.90;;;;;;;;;;5073409;28;20028;-61
2023/07/12 02:41:12;;;;;;;5.03;4.53;;;;;;;;;;5073353;28;20035;-60
2023/07/12 02:43:37;;;;;;;4.18;3.75;;;;;;;;;;5074278;28;20028;-61
2023/07/12 02:46:05;;;;;;;4.18;3.88;;;;;;;;;;5073925;28;20026;-61
2023/07/12 02:48:30;;;;;;;8.43;3.75;;;;;;;;;;5074099;28;20074;-60
2023/07/12 02:50:55;;;;;;;4.32;3.53;;;;;;;;;;5074233;28;20024;-60
2023/07/12 02:53:21;;;;;;;4.75;3.63;;;;;;;;;;5074322;28;20045;-60
2023/07/12 02:55:48;;;;;;;4.53;4.10;;;;;;;;;;5074443;28;20108;-60
2023/07/12 02:58:13;;;;;;;6.13;4.65;;;;;;;;;;5074200;28;20040;-61
2023/07/12 03:00:38;;;;;;;4.47;4.07;;;;;;;;;;5073155;28;20078;-61
2023/07/12 03:03:04;;;;;;;4.43;4.03;;;;;;;;;;5074350;28;20075;-61
2023/07/12 03:05:32;;;;;;;4.90;4.50;;;;;;;;;;5074166;28;20476;-60
2023/07/12 03:07:58;;;;;;;4.80;4.40;;;;;;;;;;5073921;28;20012;-60
2023/07/12 03:10:23;;;;;;;4.50;3.90;;;;;;;;;;5072431;28;20081;-60
2023/07/12 03:12:48;;;;;;;4.20;3.70;;;;;;;;;;5073891;28;20460;-60
2023/07/12 03:15:14;;;;;;;4.00;3.60;;;;;;;;;;5073893;28;20036;-60
2023/07/12 03:17:39;;;;;;;4.40;4.00;;;;;;;;;;5074065;28;20029;-60
2023/07/12 03:20:05;;;;;;;6.45;3.67;;;;;;;;;;5074239;28;20032;-62
2023/07/12 03:22:30;;;;;;;5.47;3.58;;;;;;;;;;5073521;28;20032;-61
2023/07/12 03:24:55;;;;;;;5.88;3.65;;;;;;;;;;5073919;28;20024;-61
2023/07/12 03:27:22;;;;;;;3.78;3.47;;;;;;;;;;5073583;28;20060;-56
2023/07/12 03:29:47;;;;;;;5.15;3.58;;;;;;;;;;5074054;28;20086;-56
2023/07/12 03:32:12;;;;;;;5.72;3.63;;;;;;;;;;5072497;28;20017;-56
2023/07/12 03:34:38;;;;;;;3.72;3.42;;;;;;;;;;5073967;28;20519;-60
2023/07/12 03:37:03;;;;;;;3.35;3.05;;;;;;;;;;5073606;28;20032;-60
2023/07/12 03:39:29;;;;;;;3.90;3.50;;;;;;;;;;5073458;28;20024;-60
2023/07/12 03:41:54;;;;;;;3.28;2.97;;;;;;;;;;5073581;28;20475;-61
2023/07/12 03:44:19;;;;;;;4.90;3.20;;;;;;;;;;5072718;28;20024;-61
2023/07/12 03:46:45;;;;;;;6.20;3.53;;;;;;;;;;5072321;28;20115;-61
2023/07/12 03:49:10;;;;;;;5.45;3.75;;;;;;;;;;5074087;28;20032;-61
2023/07/12 03:51:36;;;;;;;4.63;3.97;;;;;;;;;;5073581;28;20028;-60
2023/07/12 03:54:02;;;;;;;4.88;3.85;;;;;;;;;;5073475;28;20041;-61
2023/07/12 03:56:27;;;;;;;4.57;4.18;;;;;;;;;;5074154;28;20359;-61
2023/07/12 03:58:53;;;;;;;4.68;4.28;;;;;;;;;;5073610;28;20029;-61
2023/07/12 04:01:18;;;;;;;12.73;4.65;;;;;;;;;;5072658;28;20387;-61
2023/07/12 04:03:44;;;;;;;6.25;4.15;;;;;;;;;;5073740;28;20036;-61
2023/07/12 04:06:09;;;;;;;3.92;3.53;;;;;;;;;;5055848;28;20426;-61
2023/07/12 04:08:35;;;;;;;4.93;4.05;;;;;;;;;;5073251;28;20116;-60
2023/07/12 04:11:01;;;;;;;4.18;3.50;;;;;;;;;;5073635;28;20021;-61
2023/07/12 04:13:27;;;;;;;4.05;3.65;;;;;;;;;;5073366;28;20060;-60
2023/07/12 04:15:53;;;;;;;5.63;3.85;;;;;;;;;;5073973;28;20082;-56
2023/07/12 04:18:19;;;;;;;3.58;3.28;;;;;;;;;;5073375;28;20031;-56
2023/07/12 04:20:44;;;;;;;4.30;3.40;;;;;;;;;;5073360;28;20115;-55
2023/07/12 04:23:10;;;;;;;3.88;3.50;;;;;;;;;;5073367;28;20396;-61
2023/07/12 04:25:35;;;;;;;3.60;3.30;;;;;;;;;;5079116;28;20551;-61
2023/07/12 04:28:01;;;;;;;3.75;3.13;;;;;;;;;;5072649;28;20475;-61
2023/07/12 04:30:26;;;;;;;3.72;3.42;;;;;;;;;;5072654;28;20039;-58
2023/07/12 04:32:52;;;;;;;3.55;3.35;;;;;;;;;;5072990;28;20032;-59
2023/07/12 04:35:19;;;;;;;3.67;3.33;;;;;;;;;;5072698;28;20028;-57
2023/07/12 04:37:50;;;;;;;3.70;3.40;;;;;;;;;;5072090;28;20028;-60
2023/07/12 04:40:17;;;;;;;5.55;3.70;;;;;;;;;;5072825;28;20079;-57
2023/07/12 04:42:44;;;;;;;4.13;3.03;;;;;;;;;;5071659;28;20024;-57
2023/07/12 04:45:10;;;;;;;3.08;2.88;;;;;;;;;;5072919;28;20053;-60
2023/07/12 04:47:36;;;;;;;4.22;3.50;;;;;;;;;;5072038;28;20032;-60
2023/07/12 04:50:05;;;;;;;3.72;3.03;;;;;;;;;;5073257;28;20025;-60
2023/07/12 04:52:30;;;;;;;3.10;2.90;;;;;;;;;;5075927;28;20012;-62
2023/07/12 04:54:57;;;;;;;5.45;3.25;;;;;;;;;;5090002;28;20044;-62
2023/07/12 04:57:23;;;;;;;4.30;3.30;;;;;;;;;;5096910;28;20039;-60
2023/07/12 04:59:48;;;;;;;5.03;2.97;;;;;;;;;;5096594;28;20020;-60
2023/07/12 05:02:13;;;;;;;3.45;3.15;;;;;;;;;;5096817;28;20371;-60
2023/07/12 05:04:38;;;;;;;3.47;3.13;;;;;;;;;;5096649;28;20075;-60
2023/07/12 05:07:09;;;;;;;4.50;3.33;;;;;;;;;;5096844;28;20107;-60
2023/07/12 05:09:34;;;;;;;3.58;3.20;;;;;;;;;;5096355;28;20024;-60
2023/07/12 05:12:00;;;;;;;5.60;3.42;;;;;;;;;;5096422;28;20100;-62
2023/07/12 05:14:25;;;;;;;5.93;3.47;;;;;;;;;;5096784;28;20032;-62
2023/07/12 05:16:50;;;;;;;5.80;3.10;;;;;;;;;;5096562;28;20439;-61
2023/07/12 05:19:16;;;;;;;3.90;3.13;;;;;;;;;;5096198;28;20024;-61
2023/07/12 05:21:41;;;;;;;3.60;3.22;;;;;;;;;;5096440;28;20035;-61
2023/07/12 05:24:07;;;;;;;9.52;3.83;;;;;;;;;;5088699;28;20077;-61
2023/07/12 05:26:33;;;;;;;3.38;3.08;;;;;;;;;;5074502;28;20479;-57
2023/07/12 05:28:59;;;;;;;4.82;3.10;;;;;;;;;;5075038;28;20074;-58
2023/07/12 05:31:24;;;;;;;3.28;2.97;;;;;;;;;;5072977;28;20624;-62
2023/07/12 05:33:49;;;;;;;3.72;3.42;;;;;;;;;;5074687;28;20071;-56
2023/07/12 05:36:15;;;;;;;3.33;3.05;;;;;;;;;;5075265;28;20074;-56
2023/07/12 05:38:40;;;;;;;3.47;3.13;;;;;;;;;;5075450;28;20071;-59
2023/07/12 05:41:06;;;;;;;3.92;3.00;;;;;;;;;;5074492;28;20029;-56
2023/07/12 05:43:33;;;;;;;5.30;2.83;;;;;;;;;;5073207;28;20097;-56
2023/07/12 05:45:59;;;;;;;3.53;3.03;;;;;;;;;;5073830;28;20039;-56
2023/07/12 05:48:25;;;;;;;3.63;3.10;;;;;;;;;;5073454;28;20033;-57
2023/07/12 05:50:51;;;;;;;3.85;3.10;;;;;;;;;;5072805;28;20036;-57
2023/07/12 05:53:16;;;;;;;4.47;3.40;;;;;;;;;;5073190;28;20128;-57
2023/07/12 05:55:41;;;;;;;3.70;3.45;;;;;;;;;;5073182;28;20119;-57
2023/07/12 05:58:07;;;;;;;3.78;3.05;;;;;;;;;;5073500;28;20112;-57
2023/07/12 06:00:32;;;;;;;4.60;3.80;;;;;;;;;;5073173;28;20402;-57
2023/07/12 06:02:57;;;;;;;6.40;3.30;;;;;;;;;;5072858;28;20021;-57
2023/07/12 06:05:23;;;;;;;5.18;3.30;;;;;;;;;;5073855;28;20029;-57
2023/07/12 06:07:48;;;;;;;4.40;3.60;;;;;;;;;;5074767;28;20091;-57
2023/07/12 06:10:15;;;;;;;4.07;3.47;;;;;;;;;;5074808;28;20013;-57
2023/07/12 06:12:41;;;;;;;7.45;3.70;;;;;;;;;;5074666;28;20039;-57
2023/07/12 06:15:07;;;;;;;5.65;4.07;;;;;;;;;;5074704;28;20062;-57
2023/07/12 06:17:32;;;;;;;3.80;3.25;;;;;;;;;;5073888;28;20013;-57
2023/07/12 06:19:58;;;;;;;3.80;3.50;;;;;;;;;;5073130;28;20108;-57
2023/07/12 06:22:23;;;;;;;3.92;3.40;;;;;;;;;;5072868;28;20093;-57
2023/07/12 06:24:48;;;;;;;4.07;3.25;;;;;;;;;;5072382;28;20378;-57
2023/07/12 06:27:14;;;;;;;3.72;3.42;;;;;;;;;;5072482;28;20029;-57
2023/07/12 06:29:40;;;;;;;4.28;3.60;;;;;;;;;;5072533;28;20051;-57
2023/07/12 06:32:05;;;;;;;5.50;3.60;;;;;;;;;;5072429;28;20108;-57
2023/07/12 06:34:31;;;;;;;4.53;4.07;;;;;;;;;;5074078;28;20487;-57
2023/07/12 06:36:56;;;;;;;4.30;3.90;;;;;;;;;;5074233;28;20082;-57
2023/07/12 06:39:21;;;;;;;4.32;3.88;;;;;;;;;;5074231;28;20082;-57
2023/07/12 06:41:47;;;;;;;7.60;4.25;;;;;;;;;;5072981;28;20043;-57
2023/07/12 06:44:16;;;;;;;4.20;3.80;;;;;;;;;;5073230;28;20031;-57
2023/07/12 06:46:41;;;;;;;5.82;3.70;;;;;;;;;;5072877;28;20028;-57
2023/07/12 06:49:07;;;;;;;5.53;4.32;;;;;;;;;;5074331;28;20553;-57
2023/07/12 06:51:32;;;;;;;4.28;3.88;;;;;;;;;;5074227;28;20032;-57
2023/07/12 06:53:57;;;;;;;5.22;4.07;;;;;;;;;;5073779;28;20036;-57
2023/07/12 06:56:23;;;;;;;7.93;4.47;;;;;;;;;;5072650;28;20431;-57
2023/07/12 06:58:48;;;;;;;5.20;4.70;;;;;;;;;;5074102;28;20025;-57
2023/07/12 07:01:14;;;;;;;6.47;4.20;;;;;;;;;;5073829;28;20039;-56
2023/07/12 07:03:40;;;;;;;5.00;4.60;;;;;;;;;;5073676;28;20039;-57
2023/07/12 07:06:05;;;;;;;4.60;4.20;;;;;;;;;;5073991;28;20025;-57
2023/07/12 07:08:31;;;;;;;6.90;4.13;;;;;;;;;;5073640;28;20028;-57
2023/07/12 07:10:57;;;;;;;8.65;4.45;;;;;;;;;;5073652;28;20045;-57
2023/07/12 07:13:22;;;;;;;8.23;4.90;;;;;;;;;;5073202;28;20645;-57
2023/07/12 07:15:48;;;;;;;7.85;4.70;;;;;;;;;;5072361;28;20024;-57
2023/07/12 07:18:13;;;;;;;8.25;5.00;;;;;;;;;;5073503;28;20044;-57
2023/07/12 07:20:39;;;;;;;8.20;4.90;;;;;;;;;;5072278;28;20032;-56
2023/07/12 07:23:04;;;;;;;11.98;4.80;;;;;;;;;;5073682;28;20471;-57
2023/07/12 07:25:29;;;;;;;5.32;4.82;;;;;;;;;;5072063;28;20373;-57
2023/07/12 07:27:55;;;;;;;8.25;4.65;;;;;;;;;;5073407;28;20025;-57
2023/07/12 07:30:20;;;;;;;6.78;4.82;;;;;;;;;;5073395;28;20020;-57
2023/07/12 07:32:45;;;;;;;5.25;4.32;;;;;;;;;;5073354;28;20023;-57
2023/07/12 07:35:11;;;;;;;7.63;4.65;;;;;;;;;;5073333;28;20530;-57
2023/07/12 07:37:37;;;;;;;6.40;5.18;;;;;;;;;;5073357;28;20051;-56
2023/07/12 07:40:03;;;;;;;6.50;5.15;;;;;;;;;;5073273;28;20028;-57
2023/07/12 07:42:28;;;;;;;4.97;4.57;;;;;;;;;;5073224;28;20086;-56
2023/07/12 07:44:53;;;;;;;6.78;4.57;;;;;;;;;;5073158;28;20036;-57
2023/07/12 07:47:19;;;;;;;5.57;4.43;;;;;;;;;;5073174;28;20033;-57
2023/07/12 07:49:45;;;;;;;6.32;4.93;;;;;;;;;;5073234;28;20063;-57
2023/07/12 07:52:10;;;;;;;6.03;4.57;;;;;;;;;;5073102;28;20031;-57
2023/07/12 07:54:35;;;;;;;5.63;4.35;;;;;;;;;;5073009;28;20124;-57
2023/07/12 07:57:01;;;;;;;7.55;4.75;;;;;;;;;;5073113;28;20032;-57
2023/07/12 07:59:26;;;;;;;5.70;5.07;;;;;;;;;;5073367;28;20028;-57
2023/07/12 08:01:51;;;;;;;5.70;4.93;;;;;;;;;;5073060;28;20135;-57
2023/07/12 08:04:17;;;;;;;8.07;5.10;;;;;;;;;;5072964;28;20472;-57
2023/07/12 08:06:43;;;;;;;4.80;4.40;;;;;;;;;;5073077;28;20056;-57
2023/07/12 08:09:09;;;;;;;6.57;4.90;;;;;;;;;;5073267;28;20435;-57
2023/07/12 08:11:34;;;;;;;6.93;4.90;;;;;;;;;;5073012;28;20037;-57
2023/07/12 08:13:59;;;;;;;6.40;4.60;;;;;;;;;;5073041;28;20086;-57
2023/07/12 08:16:26;;;;;;;7.13;4.97;;;;;;;;;;5072953;28;20063;-56
2023/07/12 08:18:51;;;;;;;4.50;4.10;;;;;;;;;;5072898;28;20039;-57
2023/07/12 08:21:16;;;;;;;5.28;4.78;;;;;;;;;;5072915;28;20107;-57
2023/07/12 08:23:41;;;;;;;6.35;4.88;;;;;;;;;;5071537;28;20029;-57
2023/07/12 08:26:07;;;;;;;7.22;4.90;;;;;;;;;;5074237;28;20028;-60
2023/07/12 08:28:32;;;;;;;7.32;4.53;;;;;;;;;;5076652;28;20441;-60
2023/07/12 08:30:57;;;;;;;5.32;4.75;;;;;;;;;;5058762;28;20515;-60
2023/07/12 08:33:23;;;;;;;6.30;4.80;;;;;;;;;;5076631;28;20506;-60
2023/07/12 08:35:48;;;;;;;7.20;4.78;;;;;;;;;;5076524;28;20032;-60
2023/07/12 08:38:14;;;;;;;6.15;4.90;;;;;;;;;;5076765;28;20048;-60
2023/07/12 08:40:42;;;;;;;6.70;5.15;;;;;;;;;;5076540;28;20372;-60
2023/07/12 08:43:14;;;;;;;7.53;4.97;;;;;;;;;;5057526;22;20053;-57
2023/07/12 08:45:39;;;;;;;6.82;4.63;;;;;;;;;;5067221;22;20569;-57
2023/07/12 08:48:07;;;;;;;6.32;5.28;;;;;;;;;;5068250;23;20049;-58
2023/07/12 08:50:40;;;;;;;6.05;5.03;;;;;;;;;;4997940;28;20042;-57
2023/07/12 08:53:08;;;;;;;7.95;5.20;;;;;;;;;;5039102;23;20515;-57
2023/07/12 08:55:34;;;;;;;6.35;5.18;;;;;;;;;;5032594;22;20069;-57
2023/07/12 08:58:13;;;;;;;5.93;4.65;;;;;;;;;;5018366;23;20092;-60
2023/07/12 09:00:53;;;;;;;9.30;5.35;;;;;;;;;;5045668;22;20348;-61
2023/07/12 09:03:19;;;;;;;6.50;5.15;;;;;;;;;;5022802;23;20069;-57
2023/07/12 09:05:45;;;;;;;8.15;5.43;;;;;;;;;;5026080;23;20053;-57
2023/07/12 09:08:18;;;;;;;5.63;5.10;;;;;;;;;;5039424;23;20531;-57
2023/07/12 09:10:48;;;;;;;5.82;4.70;;;;;;;;;;5046869;23;20420;-60
2023/07/12 09:13:14;;;;;;;6.03;4.93;;;;;;;;;;5047048;23;20119;-60
2023/07/12 09:15:49;;;;;;;5.18;4.68;;;;;;;;;;5057987;23;20195;-56
2023/07/12 09:18:46;;;;;;;6.57;4.85;;;;;;;;;;5050449;23;20054;-60
2023/07/12 09:21:19;;;;;;;6.78;5.15;;;;;;;;;;5032130;23;20068;-60
2023/07/12 09:23:45;;;;;;;6.03;5.35;;;;;;;;;;4995355;28;20034;-57
2023/07/12 09:26:12;;;;;;;5.85;4.85;;;;;;;;;;4984366;23;20093;-60
2023/07/12 09:28:39;;;;;;;8.13;5.50;;;;;;;;;;4996307;28;20027;-61
2023/07/12 09:31:11;;;;;;;5.80;4.45;;;;;;;;;;4996254;28;20031;-61
2023/07/12 09:33:37;;;;;;;5.25;4.65;;;;;;;;;;4996280;28;20056;-61
2023/07/12 09:36:05;;;;;;;8.80;5.00;;;;;;;;;;4996125;28;20501;-61
2023/07/12 09:38:34;;;;;;;4.65;4.25;;;;;;;;;;4995872;28;20465;-61
2023/07/12 09:41:07;;;;;;;4.93;4.43;;;;;;;;;;4996126;28;20121;-61
2023/07/12 09:43:36;;;;;;;4.53;3.67;;;;;;;;;;4994895;28;20040;-61
2023/07/12 09:46:08;;;;;;;4.82;4.25;;;;;;;;;;4996017;28;20054;-61
2023/07/12 09:48:44;;;;;;;5.85;4.15;;;;;;;;;;4996251;28;20454;-61
2023/07/12 09:51:20;;;;;;;5.32;4.88;;;;;;;;;;4995863;28;20038;-61
2023/07/12 09:53:49;;;;;;;6.00;5.03;;;;;;;;;;4995887;28;20508;-61
2023/07/12 09:56:29;;;;;;;5.85;4.78;;;;;;;;;;4995837;28;20030;-61
2023/07/12 09:59:01;;;;;;;4.90;4.50;;;;;;;;;;4995794;28;20447;-61
2023/07/12 10:01:32;;;;;;;5.90;4.47;;;;;;;;;;4995756;28;20038;-61
2023/07/12 10:04:13;;;;;;;5.18;4.72;;;;;;;;;;4995583;28;20038;-61
2023/07/12 10:06:40;;;;;;;8.25;5.45;;;;;;;;;;4994521;28;20061;-61
2023/07/12 10:09:08;;;;;;;8.73;5.47;;;;;;;;;;4995539;28;20474;-61
2023/07/12 10:11:44;;;;;;;6.13;5.53;;;;;;;;;;4995497;28;20604;-61
2023/07/12 10:14:11;;;;;;;7.50;6.15;;;;;;;;;;4994291;28;20069;-61
2023/07/12 10:16:41;;;;;;;7.22;6.38;;;;;;;;;;4995471;28;20035;-61
2023/07/12 10:19:20;;;;;;;7.82;6.30;;;;;;;;;;4995537;28;20038;-61
2023/07/12 10:21:46;;;;;;;7.68;5.90;;;;;;;;;;4995359;28;20030;-61
2023/07/12 10:24:13;;;;;;;7.05;6.45;;;;;;;;;;4994035;28;20491;-61
2023/07/12 10:26:39;;;;;;;7.43;5.95;;;;;;;;;;5008411;28;20048;-61
2023/07/12 10:29:08;;;;;;;6.35;5.80;;;;;;;;;;5015048;28;20105;-61
2023/07/12 10:31:40;;;;;;;8.35;6.32;;;;;;;;;;5015202;28;20018;-61
2023/07/12 10:34:16;;;;;;;6.63;5.90;;;;;;;;;;5014713;28;20038;-61
2023/07/12 10:36:45;;;;;;;6.30;5.68;;;;;;;;;;4997358;28;20457;-61
2023/07/12 10:39:10;;;;;;;7.78;6.10;;;;;;;;;;5014597;28;20369;-61
2023/07/12 10:41:41;;;;;;;6.63;6.05;;;;;;;;;;5014586;28;20022;-61
2023/07/12 10:44:33;;;;;;;8.32;6.32;;;;;;;;;;5014408;28;20133;-61
2023/07/12 10:47:01;;;;;;;6.55;5.97;;;;;;;;;;4995880;28;20088;-61
2023/07/12 10:49:46;;;;;;;8.80;6.10;;;;;;;;;;5013745;28;20072;-61
2023/07/12 10:52:11;;;;;;;9.35;7.00;;;;;;;;;;5014287;28;20029;-61
2023/07/12 10:54:36;;;;;;;7.57;6.40;;;;;;;;;;5014689;28;20537;-61
2023/07/12 10:57:04;;;;;;;8.98;6.97;;;;;;;;;;4996717;28;20653;-61
2023/07/12 10:59:32;;;;;;;11.32;8.13;;;;;;;;;;5014112;28;20049;-61
2023/07/12 11:02:18;;;;;;;13.50;8.15;;;;;;;;;;5014258;28;20059;-61
2023/07/12 11:04:48;;;;;;;9.07;6.72;;;;;;;;;;5006859;28;20141;-61
2023/07/12 11:07:14;;;;;;;7.57;6.50;;;;;;;;;;5014132;28;20381;-61
2023/07/12 11:09:46;;;;;;;7.72;6.93;;;;;;;;;;5014099;28;20060;-61
2023/07/12 11:12:12;;;;;;;6.20;5.40;;;;;;;;;;5013960;28;20022;-61
2023/07/12 11:14:37;;;;;;;6.57;5.97;;;;;;;;;;5014230;28;20441;-61
2023/07/12 11:17:05;;;;;;;7.63;6.25;;;;;;;;;;5014048;28;20030;-61
2023/07/12 11:19:40;;;;;;;7.68;5.70;;;;;;;;;;5013856;28;20041;-61
2023/07/12 11:22:08;;;;;;;7.72;6.18;;;;;;;;;;5029106;28;20026;-61
2023/07/12 11:24:37;;;;;;;8.25;7.20;;;;;;;;;;5013765;28;20030;-61
2023/07/12 11:27:07;;;;;;;7.57;6.87;;;;;;;;;;5013700;28;20137;-61
2023/07/12 11:29:35;;;;;;;8.70;7.43;;;;;;;;;;4996228;28;20018;-61
2023/07/12 11:32:19;;;;;;;10.57;7.35;;;;;;;;;;5013756;28;20026;-61
2023/07/12 11:34:45;;;;;;;9.23;6.90;;;;;;;;;;5013752;28;20056;-61
2023/07/12 11:37:15;;;;;;;9.57;7.60;;;;;;;;;;5013621;28;20042;-61
2023/07/12 11:39:43;;;;;;;8.53;7.07;;;;;;;;;;5013700;28;20397;-62
2023/07/12 11:42:22;;;;;;;9.05;7.38;;;;;;;;;;4996078;28;20544;-61
2023/07/12 11:44:58;;;;;;;11.30;7.47;;;;;;;;;;5013560;28;20038;-61
2023/07/12 11:47:23;;;;;;;8.13;7.03;;;;;;;;;;5013530;28;20469;-61
2023/07/12 11:49:53;;;;;;;8.35;7.00;;;;;;;;;;5013481;28;20032;-61
2023/07/12 11:52:19;;;;;;;;;;;;;;;;;;5013965;28;20072;-61
2023/07/12 11:54:44;;;;;;;8.93;6.63;;;;;;;;;;5013518;28;19940;-61
2023/07/12 11:57:12;;;;;;;8.35;7.25;;;;;;;;;;5013661;28;20026;-61
2023/07/12 11:59:39;;;;;;;7.45;6.85;;;;;;;;;;5014152;28;20536;-61
2023/07/12 12:02:09;;;;;;;6.85;6.15;;;;;;;;;;5017589;28;20037;-61
2023/07/12 12:04:34;;;;;;;;;;;;;;;;;;5033153;28;20046;-61
2023/07/12 12:07:05;;;;;;;7.67;6.87;;;;;;;;;;5017502;28;19965;-61
2023/07/12 12:09:32;;;;;;;7.63;6.80;;;;;;;;;;5017293;28;20057;-61
2023/07/12 12:11:58;;;;;;;9.00;6.88;;;;;;;;;;5017349;28;20029;-61
2023/07/12 12:14:31;;;;;;;8.02;6.22;;;;;;;;;;5017309;28;20068;-61
2023/07/12 12:17:02;;;;;;;7.78;7.00;;;;;;;;;;5017226;28;20091;-61
2023/07/12 12:19:28;;;;;;;7.35;6.60;;;;;;;;;;5017436;28;20384;-61
2023/07/12 12:22:13;;;;;;;9.20;7.07;;;;;;;;;;5017182;28;20036;-61
2023/07/12 12:24:41;;;;;;;6.63;6.13;;;;;;;;;;5017033;28;20025;-61
2023/07/12 12:27:15;;;;;;;8.18;6.80;;;;;;;;;;4999350;28;20069;-61
2023/07/12 12:29:40;;;;;;;7.30;6.38;;;;;;;;;;5017012;28;20113;-61
2023/07/12 12:32:12;;;;;;;6.63;6.03;;;;;;;;;;5017001;28;20111;-61
2023/07/12 12:34:41;;;;;;;7.80;5.95;;;;;;;;;;5017192;28;20037;-61
2023/07/12 12:37:06;;;;;;;6.32;5.75;;;;;;;;;;5017164;28;20034;-61
2023/07/12 12:39:32;;;;;;;5.40;4.90;;;;;;;;;;5016878;28;20032;-61
2023/07/12 12:41:58;;;;;;;5.53;4.72;;;;;;;;;;5016752;28;20539;-61
2023/07/12 12:44:28;;;;;;;6.07;4.32;;;;;;;;;;5016711;28;20033;-61
2023/07/12 12:46:54;;;;;;;5.13;4.57;;;;;;;;;;5016823;28;20441;-61
2023/07/12 12:49:30;;;;;;;8.20;4.82;;;;;;;;;;5016613;28;20064;-61
2023/07/12 12:52:08;;;;;;;8.30;4.07;;;;;;;;;;5016661;28;20061;-61
2023/07/12 12:54:34;;;;;;;5.55;4.20;;;;;;;;;;5016696;28;20084;-61
2023/07/12 12:56:59;;;;;;;4.60;4.28;;;;;;;;;;5016836;28;20026;-61
2023/07/12 12:59:25;;;;;;;6.32;4.35;;;;;;;;;;5031194;28;20025;-61
2023/07/12 13:01:50;;;;;;;6.97;4.93;;;;;;;;;;5016193;28;20481;-61
2023/07/12 13:04:16;;;;;;;6.93;5.03;;;;;;;;;;5015860;28;20037;-61
2023/07/12 13:06:41;;;;;;;4.88;4.47;;;;;;;;;;5015857;28;20017;-61
2023/07/12 13:09:15;;;;;;;4.88;4.38;;;;;;;;;;5015910;28;20018;-61
2023/07/12 13:11:40;;;;;;;5.28;4.47;;;;;;;;;;5002324;28;20033;-61
2023/07/12 13:14:07;;;;;;;7.28;4.38;;;;;;;;;;4998102;28;20033;-61
2023/07/12 13:16:32;;;;;;;5.75;4.97;;;;;;;;;;5015605;28;20033;-61
2023/07/12 13:18:58;;;;;;;5.35;4.93;;;;;;;;;;5015831;28;20369;-61
2023/07/12 13:21:27;;;;;;;5.40;4.57;;;;;;;;;;5015624;28;20037;-61
2023/07/12 13:23:52;;;;;;;5.25;4.85;;;;;;;;;;4998959;28;20103;-61
2023/07/12 13:26:19;;;;;;;5.32;4.32;;;;;;;;;;5016311;28;20093;-61
2023/07/12 13:28:44;;;;;;;4.95;4.22;;;;;;;;;;5016529;28;20018;-61
2023/07/12 13:31:11;;;;;;;5.82;4.53;;;;;;;;;;4998143;28;20497;-61
2023/07/12 13:33:36;;;;;;;8.10;4.93;;;;;;;;;;4997632;28;20050;-61
2023/07/12 13:36:02;;;;;;;8.50;5.22;;;;;;;;;;5015160;28;20453;-61
2023/07/12 13:38:27;;;;;;;6.03;4.35;;;;;;;;;;5015591;28;20121;-61
2023/07/12 13:40:52;;;;;;;7.90;4.68;;;;;;;;;;4997208;28;20116;-61
2023/07/12 13:43:18;;;;;;;4.88;4.03;;;;;;;;;;5014655;28;20034;-61
2023/07/12 13:45:43;;;;;;;5.55;4.43;;;;;;;;;;5015731;28;20057;-61
2023/07/12 13:48:13;;;;;;;7.82;4.93;;;;;;;;;;5015306;28;20457;-61
2023/07/12 13:50:40;;;;;;;6.93;5.35;;;;;;;;;;5014851;28;20062;-61
2023/07/12 13:53:08;;;;;;;6.63;4.90;;;;;;;;;;5014757;28;20385;-61
2023/07/12 13:55:33;;;;;;;4.75;4.35;;;;;;;;;;5014830;28;20041;-61
2023/07/12 13:57:58;;;;;;;4.40;4.00;;;;;;;;;;4996771;28;20030;-61
2023/07/12 14:00:24;;;;;;;5.38;4.80;;;;;;;;;;5014918;28;20073;-61
2023/07/12 14:02:50;;;;;;;8.10;5.55;;;;;;;;;;5015738;28;20058;-61
2023/07/12 14:05:16;;;;;;;5.93;4.90;;;;;;;;;;5015713;28;20072;-61
2023/07/12 14:07:42;;;;;;;8.10;5.80;;;;;;;;;;5015483;28;20054;-61
2023/07/12 14:10:15;;;;;;;5.43;4.88;;;;;;;;;;4997874;28;20073;-61
2023/07/12 14:12:41;;;;;;;5.78;4.93;;;;;;;;;;5015632;28;20022;-61
2023/07/12 14:15:13;;;;;;;5.95;5.35;;;;;;;;;;5015637;28;20434;-61
2023/07/12 14:17:39;;;;;;;5.70;5.20;;;;;;;;;;5015331;28;20063;-61
2023/07/12 14:20:04;;;;;;;5.43;4.82;;;;;;;;;;5015512;28;20029;-60
2023/07/12 14:22:30;;;;;;;5.80;5.30;;;;;;;;;;5015409;28;20034;-61
2023/07/12 14:24:57;;;;;;;5.63;5.13;;;;;;;;;;5014516;28;20030;-61
2023/07/12 14:27:26;;;;;;;5.78;5.30;;;;;;;;;;5014956;28;20068;-61
2023/07/12 14:29:54;;;;;;;6.28;5.68;;;;;;;;;;5015287;28;20369;-61
2023/07/12 14:32:22;;;;;;;5.60;4.95;;;;;;;;;;5015042;28;20101;-61
2023/07/12 14:34:48;;;;;;;5.25;4.82;;;;;;;;;;5015256;28;20042;-61
2023/07/12 14:37:15;;;;;;;5.45;4.85;;;;;;;;;;5014834;28;20120;-61
2023/07/12 14:39:40;;;;;;;5.65;4.50;;;;;;;;;;5015372;28;20084;-61
2023/07/12 14:42:12;;;;;;;4.60;4.25;;;;;;;;;;4997758;28;20034;-61
2023/07/12 14:44:37;;;;;;;4.45;4.07;;;;;;;;;;5014995;28;20037;-61